Time;durP1;ratioP1;P1;durP2;ratioP2;P2;SDS_P1;SDS_P2;PMS_P1;PMS_P2;Temp;Humidity;BMP_temperature;BMP_pressure;BME280_temperature;BME280_humidity;BME280_pressure;Samples;Min_cycle;Max_cycle;Signal;HPM_P1;HPM_P2
2021/01/17 00:00:06;;;;;;;48.03;24.55;;;0.10;99.90;;;;;;5022000;28;20046;-82
2021/01/17 00:02:32;;;;;;;50.25;25.38;;;0.00;99.90;;;;;;5022459;28;20088;-82
2021/01/17 00:04:59;;;;;;;50.67;23.50;;;0.10;99.90;;;;;;5021347;28;20085;-80
2021/01/17 00:07:29;;;;;;;53.50;26.67;;;0.00;99.90;;;;;;5020578;28;20092;-81
2021/01/17 00:09:55;;;;;;;51.33;25.50;;;0.00;99.90;;;;;;5020766;28;20046;-82
2021/01/17 00:12:22;;;;;;;53.63;26.10;;;0.00;99.90;;;;;;5020278;28;20046;-82
2021/01/17 00:14:48;;;;;;;47.10;22.85;;;0.00;99.90;;;;;;5020216;28;20053;-81
2021/01/17 00:17:14;;;;;;;48.35;23.50;;;0.00;99.90;;;;;;5020068;28;20037;-82
2021/01/17 00:19:41;;;;;;;50.53;25.02;;;0.00;99.90;;;;;;5019690;28;20509;-82
2021/01/17 00:22:08;;;;;;;51.95;26.08;;;0.00;99.90;;;;;;5018988;28;20100;-81
2021/01/17 00:24:34;;;;;;;53.95;25.58;;;0.10;99.90;;;;;;5019194;28;20080;-81
2021/01/17 00:27:01;;;;;;;49.20;24.42;;;0.10;99.90;;;;;;5022807;28;20081;-81
2021/01/17 00:29:27;;;;;;;48.92;23.38;;;0.00;99.90;;;;;;5023820;28;20077;-81
2021/01/17 00:31:54;;;;;;;52.28;25.30;;;0.00;99.90;;;;;;5025475;28;20052;-81
2021/01/17 00:34:20;;;;;;;49.90;24.50;;;0.00;99.90;;;;;;5023135;28;20069;-81
2021/01/17 00:36:46;;;;;;;49.33;25.73;;;0.00;99.90;;;;;;5023811;28;20053;-82
2021/01/17 00:39:14;;;;;;;49.42;24.40;;;0.00;99.90;;;;;;5025675;28;20057;-79
2021/01/17 00:41:40;;;;;;;47.35;23.70;;;0.10;99.90;;;;;;5029569;28;20056;-81
2021/01/17 00:44:07;;;;;;;50.30;24.27;;;0.10;99.90;;;;;;5028405;28;20103;-82
2021/01/17 00:46:38;;;;;;;53.10;25.27;;;0.10;99.90;;;;;;5026236;28;20054;-81
2021/01/17 00:49:05;;;;;;;48.28;24.45;;;0.20;99.90;;;;;;5026231;28;20057;-81
2021/01/17 00:51:39;;;;;;;52.17;25.95;;;0.10;99.90;;;;;;5027042;28;20046;-81
2021/01/17 00:54:06;;;;;;;46.05;22.30;;;0.20;99.90;;;;;;5025551;28;20085;-80
2021/01/17 00:56:33;;;;;;;50.78;25.20;;;0.20;99.90;;;;;;5024737;28;20045;-82
2021/01/17 00:59:00;;;;;;;49.90;23.63;;;0.20;99.90;;;;;;5021865;28;20046;-81
2021/01/17 01:01:26;;;;;;;50.15;23.70;;;0.20;99.90;;;;;;5021108;28;20080;-82
2021/01/17 01:03:52;;;;;;;51.70;26.77;;;0.20;99.90;;;;;;5020721;28;20469;-81
2021/01/17 01:06:20;;;;;;;47.70;24.55;;;0.20;99.90;;;;;;5021398;28;20046;-81
2021/01/17 01:08:46;;;;;;;53.95;24.77;;;0.20;99.90;;;;;;5021934;28;20061;-81
2021/01/17 01:11:19;;;;;;;55.40;26.08;;;0.20;99.90;;;;;;5021064;28;20072;-81
2021/01/17 01:13:47;;;;;;;52.38;26.23;;;0.20;99.90;;;;;;5020554;28;20046;-81
2021/01/17 01:16:14;;;;;;;55.15;25.85;;;0.20;99.90;;;;;;5020977;28;20108;-82
2021/01/17 01:18:40;;;;;;;49.38;25.77;;;0.20;99.90;;;;;;5021244;28;20131;-81
2021/01/17 01:21:07;;;;;;;51.67;25.05;;;0.20;99.90;;;;;;5020288;28;20135;-81
2021/01/17 01:23:33;;;;;;;54.92;27.98;;;0.20;99.90;;;;;;5019948;28;20104;-81
2021/01/17 01:26:00;;;;;;;55.63;26.30;;;0.20;99.90;;;;;;5019920;28;20081;-81
2021/01/17 01:28:27;;;;;;;51.42;25.77;;;0.30;99.90;;;;;;5022274;28;20061;-81
2021/01/17 01:30:55;;;;;;;52.42;26.42;;;0.30;99.90;;;;;;5021822;28;20054;-81
2021/01/17 01:33:21;;;;;;;50.60;26.40;;;0.30;99.90;;;;;;5023038;28;20056;-80
2021/01/17 01:35:48;;;;;;;52.25;26.33;;;0.30;99.90;;;;;;5020773;28;20088;-81
2021/01/17 01:38:15;;;;;;;53.78;25.33;;;0.30;99.90;;;;;;5020724;28;20076;-81
2021/01/17 01:40:52;;;;;;;51.50;25.20;;;0.40;99.90;;;;;;5021625;28;20106;-81
2021/01/17 01:43:20;;;;;;;49.58;24.30;;;0.40;99.90;;;;;;5021518;28;20293;-83
2021/01/17 01:45:47;;;;;;;47.63;24.27;;;0.40;99.90;;;;;;5018760;28;20052;-80
2021/01/17 01:48:15;;;;;;;49.85;25.38;;;0.40;99.90;;;;;;5019810;28;20057;-82
2021/01/17 01:50:42;;;;;;;56.28;26.08;;;0.40;99.90;;;;;;5017765;28;20045;-81
2021/01/17 01:53:09;;;;;;;46.65;24.20;;;0.40;99.90;;;;;;5022613;28;20053;-82
2021/01/17 01:55:36;;;;;;;51.40;24.75;;;0.40;99.90;;;;;;5022061;28;20426;-81
2021/01/17 01:58:05;;;;;;;55.83;25.23;;;0.40;99.90;;;;;;5022510;28;20503;-81
2021/01/17 02:00:32;;;;;;;41.95;21.67;;;0.50;99.90;;;;;;5021803;28;20058;-81
2021/01/17 02:02:58;;;;;;;51.90;26.67;;;0.50;99.90;;;;;;5022480;28;20046;-80
2021/01/17 02:05:25;;;;;;;56.40;26.92;;;0.50;99.90;;;;;;5020518;28;20073;-83
2021/01/17 02:08:25;;;;;;;53.70;24.55;;;0.40;99.90;;;;;;5021439;28;20513;-84
2021/01/17 02:10:52;;;;;;;50.78;26.58;;;0.40;99.90;;;;;;5020832;28;20269;-82
2021/01/17 02:13:23;;;;;;;56.72;26.70;;;0.40;99.90;;;;;;5020132;28;20077;-82
2021/01/17 02:15:54;;;;;;;55.38;26.08;;;0.40;99.90;;;;;;5026782;28;20057;-82
2021/01/17 02:18:23;;;;;;;56.17;27.23;;;0.30;99.90;;;;;;5027841;28;20057;-81
2021/01/17 02:20:52;;;;;;;55.17;27.00;;;0.30;99.90;;;;;;5028980;28;20084;-80
2021/01/17 02:23:23;;;;;;;53.33;26.23;;;0.30;99.90;;;;;;5029360;28;20061;-80
2021/01/17 02:25:51;;;;;;;58.85;28.00;;;0.40;99.90;;;;;;5028125;28;20056;-81
2021/01/17 02:28:19;;;;;;;60.92;27.23;;;0.30;99.90;;;;;;5030146;28;20413;-81
2021/01/17 02:30:48;;;;;;;56.72;27.23;;;0.20;99.90;;;;;;5031051;28;20050;-80
2021/01/17 02:33:17;;;;;;;61.72;26.58;;;0.20;99.90;;;;;;5029921;28;20061;-81
2021/01/17 02:35:46;;;;;;;67.15;28.88;;;0.20;99.90;;;;;;5028563;28;20453;-80
2021/01/17 02:38:35;;;;;;;60.15;28.25;;;0.20;99.90;;;;;;5028874;28;20501;-81
2021/01/17 02:41:11;;;;;;;60.25;28.48;;;0.20;99.90;;;;;;5025231;28;20084;-81
2021/01/17 02:43:39;;;;;;;65.75;29.30;;;0.20;99.90;;;;;;5031182;28;20092;-83
2021/01/17 02:46:05;;;;;;;62.60;27.60;;;0.10;99.90;;;;;;5028447;28;20050;-82
2021/01/17 02:48:32;;;;;;;54.75;26.35;;;0.20;99.90;;;;;;5030429;28;20053;-82
2021/01/17 02:50:58;;;;;;;56.60;28.27;;;0.20;99.90;;;;;;5028953;28;20141;-80
2021/01/17 02:53:28;;;;;;;60.80;29.20;;;0.20;99.90;;;;;;5027857;28;20076;-81
2021/01/17 02:55:58;;;;;;;64.65;28.35;;;0.30;99.90;;;;;;5026431;28;20081;-79
2021/01/17 02:58:27;;;;;;;60.80;28.98;;;0.30;99.90;;;;;;5024924;28;20081;-80
2021/01/17 03:00:56;;;;;;;67.43;29.50;;;0.30;99.90;;;;;;5024365;28;20142;-79
2021/01/17 03:03:30;;;;;;;58.05;27.30;;;0.40;99.90;;;;;;5025791;28;20389;-80
2021/01/17 03:05:59;;;;;;;57.40;27.58;;;0.40;99.90;;;;;;5027475;28;20048;-80
2021/01/17 03:08:27;;;;;;;57.47;26.48;;;0.40;99.90;;;;;;5025751;28;20053;-79
2021/01/17 03:10:53;;;;;;;58.03;28.15;;;0.30;99.90;;;;;;5024141;28;20057;-79
2021/01/17 03:13:23;;;;;;;58.05;27.70;;;0.30;99.90;;;;;;5023573;28;20054;-77
2021/01/17 03:15:51;;;;;;;61.35;27.23;;;0.30;99.90;;;;;;5026201;28;20045;-80
2021/01/17 03:18:17;;;;;;;61.33;29.23;;;0.30;99.90;;;;;;5027211;28;20049;-79
2021/01/17 03:20:44;;;;;;;61.50;28.75;;;0.30;99.90;;;;;;5027952;28;20085;-79
2021/01/17 03:23:10;;;;;;;61.45;28.23;;;0.30;99.90;;;;;;5025575;28;20085;-80
2021/01/17 03:25:37;;;;;;;57.13;28.48;;;0.30;99.90;;;;;;5024012;28;20053;-80
2021/01/17 03:28:03;;;;;;;54.65;26.77;;;0.30;99.90;;;;;;5022946;28;20061;-80
2021/01/17 03:30:30;;;;;;;60.65;29.23;;;0.30;99.90;;;;;;5022968;28;20073;-80
2021/01/17 03:32:57;;;;;;;61.17;28.58;;;0.30;99.90;;;;;;5022587;28;20082;-82
2021/01/17 03:35:24;;;;;;;57.40;27.67;;;0.30;99.90;;;;;;5024048;28;20089;-82
2021/01/17 03:37:50;;;;;;;63.67;28.00;;;0.30;99.90;;;;;;5023166;28;20060;-82
2021/01/17 03:40:16;;;;;;;62.30;27.83;;;0.30;99.90;;;;;;5021144;28;20089;-80
2021/01/17 03:42:43;;;;;;;58.65;26.40;;;0.40;99.90;;;;;;5019263;28;20491;-80
2021/01/17 03:45:10;;;;;;;61.70;28.40;;;0.40;99.90;;;;;;5019827;28;20077;-81
2021/01/17 03:47:37;;;;;;;60.95;27.95;;;0.40;99.90;;;;;;5021687;28;20143;-81
2021/01/17 03:50:05;;;;;;;57.95;27.45;;;0.50;99.90;;;;;;5024697;28;20058;-80
2021/01/17 03:52:32;;;;;;;57.28;26.98;;;0.50;99.90;;;;;;5025016;28;20073;-81
2021/01/17 03:54:59;;;;;;;55.30;26.70;;;0.60;99.90;;;;;;5026379;28;20061;-81
2021/01/17 03:57:25;;;;;;;56.13;27.30;;;0.60;99.90;;;;;;5031481;28;20054;-81
2021/01/17 03:59:52;;;;;;;60.55;28.50;;;0.70;99.90;;;;;;5031754;28;20050;-80
2021/01/17 04:02:18;;;;;;;57.55;27.15;;;0.70;99.90;;;;;;5031842;28;20054;-81
2021/01/17 04:04:44;;;;;;;56.50;26.85;;;0.70;99.90;;;;;;5031814;28;20104;-81
2021/01/17 04:07:12;;;;;;;54.78;26.17;;;0.60;99.90;;;;;;5030690;28;20121;-81
2021/01/17 04:09:38;;;;;;;55.88;26.65;;;0.60;99.90;;;;;;5031285;28;20076;-81
2021/01/17 04:12:06;;;;;;;60.05;28.02;;;0.50;99.90;;;;;;5029465;28;20053;-81
2021/01/17 04:14:32;;;;;;;54.92;26.65;;;0.50;99.90;;;;;;5023965;28;20054;-81
2021/01/17 04:16:59;;;;;;;64.25;28.70;;;0.50;99.90;;;;;;5022877;28;20073;-81
2021/01/17 04:19:25;;;;;;;58.15;26.50;;;0.50;99.90;;;;;;5022654;28;20058;-81
2021/01/17 04:21:51;;;;;;;60.00;26.77;;;0.40;99.90;;;;;;5022293;28;20077;-81
2021/01/17 04:24:19;;;;;;;62.90;29.70;;;0.40;99.90;;;;;;5022016;28;20126;-81
2021/01/17 04:26:45;;;;;;;61.22;27.75;;;0.40;99.90;;;;;;5021794;28;20081;-81
2021/01/17 04:29:11;;;;;;;59.17;27.92;;;0.40;99.90;;;;;;5022265;28;20088;-81
2021/01/17 04:31:42;;;;;;;60.97;27.63;;;0.30;99.90;;;;;;5023020;28;20057;-80
2021/01/17 04:34:08;;;;;;;65.18;28.92;;;0.20;99.90;;;;;;5021879;28;20081;-80
2021/01/17 04:36:35;;;;;;;59.10;27.75;;;0.20;99.90;;;;;;5021803;28;20073;-80
2021/01/17 04:39:01;;;;;;;64.13;29.20;;;0.20;99.90;;;;;;5022790;28;20092;-80
2021/01/17 04:41:29;;;;;;;66.80;30.52;;;0.20;99.90;;;;;;5023804;28;20054;-81
2021/01/17 04:43:59;;;;;;;65.90;28.88;;;0.20;99.90;;;;;;5022670;28;20081;-81
2021/01/17 04:46:27;;;;;;;60.35;28.38;;;0.20;99.90;;;;;;5021360;28;20093;-80
2021/01/17 04:48:58;;;;;;;62.92;28.30;;;0.20;99.90;;;;;;5022164;28;20066;-79
2021/01/17 04:51:27;;;;;;;60.80;28.33;;;0.30;99.90;;;;;;5023394;28;20050;-79
2021/01/17 04:53:54;;;;;;;57.28;26.80;;;0.30;99.90;;;;;;5024142;28;20045;-80
2021/01/17 04:56:25;;;;;;;64.00;27.50;;;0.30;99.90;;;;;;5024055;28;20050;-80
2021/01/17 04:59:11;;;;;;;59.87;28.40;;;0.30;99.90;;;;;;5023136;28;20513;-80
2021/01/17 05:01:51;;;;;;;68.35;28.00;;;0.40;99.90;;;;;;5022475;28;20046;-80
2021/01/17 05:04:44;;;;;;;61.58;27.55;;;0.50;99.90;;;;;;5020553;28;20509;-80
2021/01/17 05:07:16;;;;;;;58.13;28.20;;;0.60;99.90;;;;;;5021293;28;20085;-80
2021/01/17 05:09:46;;;;;;;61.65;28.10;;;0.60;99.90;;;;;;5020732;28;20096;-80
2021/01/17 05:12:14;;;;;;;56.17;27.30;;;0.70;99.90;;;;;;5018835;28;20486;-80
2021/01/17 05:14:52;;;;;;;57.45;27.52;;;0.70;99.90;;;;;;5018236;28;20093;-79
2021/01/17 05:17:21;;;;;;;61.20;28.15;;;0.80;99.90;;;;;;5021545;28;20050;-81
2021/01/17 05:19:47;;;;;;;59.72;27.85;;;0.80;99.90;;;;;;5022517;28;20054;-81
2021/01/17 05:22:15;;;;;;;58.92;27.60;;;0.80;99.90;;;;;;5020552;28;20122;-80
2021/01/17 05:24:43;;;;;;;59.53;26.55;;;0.80;99.90;;;;;;5020331;28;20147;-81
2021/01/17 05:27:09;;;;;;;55.05;26.80;;;0.80;99.90;;;;;;5019853;28;20506;-81
2021/01/17 05:29:35;;;;;;;61.17;28.05;;;0.80;99.90;;;;;;5051383;22;20409;-77
2021/01/17 05:32:04;;;;;;;57.30;26.85;;;0.80;99.90;;;;;;5023934;28;20062;-78
2021/01/17 05:34:31;;;;;;;60.50;28.02;;;0.70;99.90;;;;;;5024136;28;20081;-78
2021/01/17 05:37:03;;;;;;;59.55;26.73;;;0.80;99.90;;;;;;5024492;28;20522;-80
2021/01/17 05:39:29;;;;;;;60.20;28.00;;;0.70;99.90;;;;;;5025785;28;20053;-81
2021/01/17 05:42:06;;;;;;;61.38;27.60;;;0.70;99.90;;;;;;5023618;28;20073;-80
2021/01/17 05:44:32;;;;;;;57.58;27.38;;;0.70;99.90;;;;;;5024854;28;20092;-80
2021/01/17 05:47:05;;;;;;;61.50;26.35;;;0.60;99.90;;;;;;5024762;28;20413;-80
2021/01/17 05:49:31;;;;;;;57.03;27.88;;;0.60;99.90;;;;;;5026251;28;20046;-81
2021/01/17 05:52:11;;;;;;;59.60;29.55;;;0.60;99.90;;;;;;5025317;28;20049;-80
2021/01/17 05:54:40;;;;;;;61.30;28.02;;;0.50;99.90;;;;;;5024463;28;20050;-81
2021/01/17 05:57:14;;;;;;;65.00;28.55;;;0.50;99.90;;;;;;5025361;28;20084;-80
2021/01/17 05:59:41;;;;;;;60.20;28.60;;;0.60;99.90;;;;;;5025880;28;20050;-81
2021/01/17 06:02:15;;;;;;;62.13;28.23;;;0.60;99.90;;;;;;5022980;28;20480;-80
2021/01/17 06:04:43;;;;;;;59.50;28.17;;;0.60;99.90;;;;;;5021787;28;20089;-80
2021/01/17 06:07:10;;;;;;;62.40;29.00;;;0.60;99.90;;;;;;5011348;28;20085;-80
2021/01/17 06:09:38;;;;;;;55.75;27.05;;;0.60;99.90;;;;;;5001236;28;20078;-80
2021/01/17 06:12:06;;;;;;;61.80;29.55;;;0.60;99.90;;;;;;5002737;28;20075;-80
2021/01/17 06:14:33;;;;;;;62.00;28.48;;;0.60;99.90;;;;;;5002305;28;20136;-80
2021/01/17 06:17:03;;;;;;;64.93;28.95;;;0.60;99.90;;;;;;5001988;28;20402;-80
2021/01/17 06:19:38;;;;;;;61.85;29.02;;;0.60;99.90;;;;;;5002360;28;20087;-80
2021/01/17 06:22:08;;;;;;;68.93;29.85;;;0.70;99.90;;;;;;4985173;28;20042;-80
2021/01/17 06:24:40;;;;;;;65.72;29.13;;;0.80;99.90;;;;;;5003518;28;20120;-80
2021/01/17 06:27:09;;;;;;;46.00;23.45;;;0.70;99.90;;;;;;5002614;28;20073;-78
2021/01/17 06:29:38;;;;;;;62.08;28.48;;;0.70;99.90;;;;;;5001672;28;20532;-78
2021/01/17 06:32:13;;;;;;;67.30;29.08;;;0.80;99.90;;;;;;5002304;28;20108;-78
2021/01/17 06:34:45;;;;;;;62.83;28.27;;;0.80;99.90;;;;;;5006041;28;20077;-78
2021/01/17 06:37:13;;;;;;;67.43;29.55;;;0.80;99.90;;;;;;5020212;28;20088;-77
2021/01/17 06:39:44;;;;;;;54.85;27.60;;;0.80;99.90;;;;;;5001838;28;20119;-78
2021/01/17 06:42:12;;;;;;;63.70;29.15;;;0.80;99.90;;;;;;5008410;28;20122;-79
2021/01/17 06:44:40;;;;;;;65.38;30.15;;;0.80;99.90;;;;;;5020940;28;20567;-79
2021/01/17 06:47:14;;;;;;;64.32;29.38;;;0.80;99.90;;;;;;5011493;28;20070;-79
2021/01/17 06:49:41;;;;;;;64.07;30.27;;;0.80;99.90;;;;;;5000015;28;20073;-76
2021/01/17 06:52:09;;;;;;;59.25;28.08;;;0.80;99.90;;;;;;5017640;28;20066;-80
2021/01/17 06:54:37;;;;;;;66.50;29.35;;;0.90;99.90;;;;;;5021095;28;20488;-78
2021/01/17 06:57:05;;;;;;;64.25;30.35;;;0.90;99.90;;;;;;4994612;28;20130;-79
2021/01/17 06:59:34;;;;;;;60.80;29.05;;;0.90;99.90;;;;;;4991576;28;20117;-80
2021/01/17 07:02:33;;;;;;;68.68;31.60;;;0.90;99.90;;;;;;4999519;28;20046;-80
2021/01/17 07:05:37;;;;;;;61.78;28.73;;;0.90;99.90;;;;;;4967976;28;20050;-80
2021/01/17 07:08:10;;;;;;;66.35;29.45;;;0.90;99.90;;;;;;4999204;28;20058;-80
2021/01/17 07:10:41;;;;;;;64.82;29.30;;;0.90;99.90;;;;;;4996748;28;20191;-79
2021/01/17 07:13:09;;;;;;;68.00;29.63;;;0.90;99.90;;;;;;4999060;28;20092;-79
2021/01/17 07:15:37;;;;;;;68.63;31.73;;;0.80;99.90;;;;;;5001967;28;20061;-79
2021/01/17 07:18:06;;;;;;;66.70;29.20;;;0.80;99.90;;;;;;5004924;28;20097;-78
2021/01/17 07:20:34;;;;;;;76.07;32.42;;;0.80;99.90;;;;;;5004916;28;20043;-79
2021/01/17 07:23:02;;;;;;;68.50;32.03;;;0.80;99.90;;;;;;5005917;28;20065;-79
2021/01/17 07:25:31;;;;;;;75.65;32.60;;;0.90;99.90;;;;;;5005558;28;20470;-79
2021/01/17 07:28:08;;;;;;;74.93;33.20;;;0.90;99.90;;;;;;5006148;28;20085;-79
2021/01/17 07:31:04;;;;;;;71.50;32.05;;;0.90;99.90;;;;;;5007140;28;20046;-79
2021/01/17 07:33:32;;;;;;;70.75;31.90;;;0.90;99.90;;;;;;5001677;28;20081;-79
2021/01/17 07:36:00;;;;;;;77.80;32.83;;;0.90;99.90;;;;;;5003309;28;20223;-79
2021/01/17 07:38:29;;;;;;;74.70;33.35;;;0.90;99.90;;;;;;5004367;28;20485;-79
2021/01/17 07:40:58;;;;;;;72.53;32.72;;;0.90;99.90;;;;;;5001949;28;20113;-78
2021/01/17 07:43:26;;;;;;;69.55;33.67;;;0.90;99.90;;;;;;5000016;28;20077;-78
2021/01/17 07:45:55;;;;;;;71.97;31.10;;;0.90;99.90;;;;;;5005741;28;20101;-79
2021/01/17 07:48:22;;;;;;;69.82;30.52;;;0.90;99.90;;;;;;5007976;28;20077;-79
2021/01/17 07:50:50;;;;;;;73.20;33.30;;;1.00;99.90;;;;;;5007250;28;20097;-79
2021/01/17 07:53:45;;;;;;;73.53;31.73;;;1.00;99.90;;;;;;5008794;28;20050;-79
2021/01/17 07:56:14;;;;;;;71.28;32.95;;;1.00;99.90;;;;;;5004196;28;20078;-79
2021/01/17 07:58:43;;;;;;;77.30;33.30;;;0.90;99.90;;;;;;5011690;28;20105;-80
2021/01/17 08:01:44;;;;;;;79.30;33.13;;;0.80;99.90;;;;;;5006585;28;20050;-80
2021/01/17 08:04:28;;;;;;;78.15;34.35;;;0.80;99.90;;;;;;5006300;28;20624;-79
2021/01/17 08:07:01;;;;;;;80.60;34.15;;;0.90;99.90;;;;;;4999511;28;20054;-79
2021/01/17 08:09:47;;;;;;;85.55;35.60;;;0.90;99.90;;;;;;4996292;28;20050;-78
2021/01/17 08:12:35;;;;;;;81.75;33.88;;;0.90;99.90;;;;;;5002817;28;20383;-79
2021/01/17 08:15:15;;;;;;;82.25;35.78;;;0.80;99.90;;;;;;5001988;28;20108;-80
2021/01/17 08:17:42;;;;;;;87.10;34.35;;;0.90;99.90;;;;;;5006908;28;20085;-79
2021/01/17 08:20:09;;;;;;;87.10;35.38;;;0.90;99.90;;;;;;5003710;28;20054;-78
2021/01/17 08:22:43;;;;;;;79.15;33.45;;;0.90;99.90;;;;;;5002407;28;20077;-79
2021/01/17 08:25:10;;;;;;;79.05;34.55;;;0.90;99.90;;;;;;5003478;28;20054;-78
2021/01/17 08:27:38;;;;;;;81.55;34.95;;;1.00;99.90;;;;;;5002834;28;20074;-79
2021/01/17 08:30:24;;;;;;;80.68;35.30;;;1.00;99.90;;;;;;5001773;28;20050;-78
2021/01/17 08:32:52;;;;;;;86.80;36.17;;;0.90;99.90;;;;;;5001060;28;20490;-78
2021/01/17 08:35:35;;;;;;;83.35;37.17;;;0.80;99.90;;;;;;5000770;28;20132;-78
2021/01/17 08:38:19;;;;;;;75.60;32.40;;;0.80;99.90;;;;;;4999764;28;20124;-77
2021/01/17 08:40:51;;;;;;;83.25;36.03;;;0.80;99.90;;;;;;4998556;28;20077;-77
2021/01/17 08:43:30;;;;;;;91.13;38.17;;;0.80;99.90;;;;;;4998396;28;20517;-78
2021/01/17 08:45:56;;;;;;;88.22;37.70;;;0.80;99.90;;;;;;4997755;28;20050;-77
2021/01/17 08:48:31;;;;;;;94.90;37.78;;;0.80;99.90;;;;;;4997350;28;20129;-78
2021/01/17 08:51:18;;;;;;;91.68;38.15;;;0.80;99.90;;;;;;4997499;28;20054;-77
2021/01/17 08:53:45;;;;;;;90.57;37.10;;;0.80;99.90;;;;;;4998289;28;20062;-78
2021/01/17 08:56:19;;;;;;;83.70;37.05;;;0.90;99.90;;;;;;5003584;28;20088;-78
2021/01/17 08:58:49;;;;;;;92.22;37.63;;;1.00;99.90;;;;;;5004524;28;20046;-78
2021/01/17 09:01:17;;;;;;;85.90;36.72;;;1.00;99.90;;;;;;5003988;28;20046;-78
2021/01/17 09:03:57;;;;;;;87.47;37.95;;;1.10;99.90;;;;;;5004151;28;20057;-78
2021/01/17 09:06:29;;;;;;;85.47;35.10;;;1.20;99.90;;;;;;5002088;28;20125;-79
2021/01/17 09:09:04;;;;;;;89.07;37.70;;;1.30;99.90;;;;;;5003263;28;20046;-78
2021/01/17 09:11:37;;;;;;;85.30;34.83;;;1.40;99.90;;;;;;5003236;28;20089;-79
2021/01/17 09:14:25;;;;;;;65.43;27.77;;;1.50;99.90;;;;;;5003784;28;20594;-79
2021/01/17 09:16:57;;;;;;;76.55;33.78;;;1.50;99.90;;;;;;5003739;28;20054;-79
2021/01/17 09:19:26;;;;;;;86.43;36.88;;;1.60;99.90;;;;;;5004883;28;20090;-78
2021/01/17 09:21:54;;;;;;;80.78;35.67;;;1.60;99.90;;;;;;5000773;28;20081;-78
2021/01/17 09:24:22;;;;;;;74.35;34.38;;;1.70;99.90;;;;;;5003062;28;20074;-77
2021/01/17 09:26:50;;;;;;;75.72;34.28;;;1.70;99.90;;;;;;5014162;28;20077;-78
2021/01/17 09:29:26;;;;;;;76.07;34.95;;;1.80;99.90;;;;;;5023880;28;20058;-78
2021/01/17 09:31:54;;;;;;;74.32;35.00;;;1.80;99.90;;;;;;5023249;28;20096;-78
2021/01/17 09:34:27;;;;;;;75.07;34.35;;;1.80;99.90;;;;;;5023487;28;20529;-78
2021/01/17 09:36:54;;;;;;;74.43;34.10;;;1.80;99.90;;;;;;5018582;28;20050;-78
2021/01/17 09:39:41;;;;;;;71.65;32.78;;;1.90;99.90;;;;;;5003421;28;20050;-78
2021/01/17 09:42:10;;;;;;;72.68;34.75;;;1.90;99.90;;;;;;5005338;28;20050;-79
2021/01/17 09:44:38;;;;;;;69.80;32.42;;;1.90;99.90;;;;;;5004991;28;20081;-78
2021/01/17 09:47:14;;;;;;;71.88;32.90;;;1.80;99.90;;;;;;5024220;28;20489;-80
2021/01/17 09:49:40;;;;;;;79.63;39.30;;;1.80;99.90;;;;;;5023163;28;20088;-79
2021/01/17 09:52:11;;;;;;;88.45;42.85;;;1.80;99.90;;;;;;5027940;28;20049;-78
2021/01/17 09:54:38;;;;;;;80.43;36.95;;;1.90;99.90;;;;;;5027660;28;20057;-80
2021/01/17 09:57:16;;;;;;;74.75;34.60;;;1.90;99.90;;;;;;5027626;28;20062;-78
2021/01/17 09:59:44;;;;;;;79.13;36.70;;;1.90;99.90;;;;;;5029755;28;20081;-79
2021/01/17 10:02:16;;;;;;;91.93;47.53;;;2.00;99.90;;;;;;5027297;28;20085;-77
2021/01/17 10:04:42;;;;;;;77.65;35.42;;;2.00;99.90;;;;;;5023590;28;20073;-79
2021/01/17 10:07:15;;;;;;;74.40;34.42;;;2.10;99.90;;;;;;5023967;28;20504;-80
2021/01/17 10:09:41;;;;;;;74.22;34.20;;;2.10;99.90;;;;;;5019684;28;20064;-80
2021/01/17 10:12:08;;;;;;;69.82;33.00;;;2.00;99.90;;;;;;5023388;28;20077;-78
2021/01/17 10:14:34;;;;;;;68.57;32.97;;;2.10;99.90;;;;;;5022121;28;20425;-79
2021/01/17 10:17:05;;;;;;;63.65;31.48;;;2.20;99.90;;;;;;5023240;28;20065;-79
2021/01/17 10:19:33;;;;;;;68.68;31.75;;;2.10;99.90;;;;;;5023835;28;20142;-77
2021/01/17 10:22:01;;;;;;;62.90;30.52;;;2.10;99.90;;;;;;5024552;28;20084;-78
2021/01/17 10:24:30;;;;;;;61.97;29.92;;;2.10;99.90;;;;;;5024555;28;20092;-78
2021/01/17 10:26:58;;;;;;;64.93;31.80;;;2.10;99.90;;;;;;5022363;28;20077;-78
2021/01/17 10:29:27;;;;;;;69.97;32.17;;;2.10;99.90;;;;;;5011173;28;20080;-80
2021/01/17 10:32:02;;;;;;;68.00;32.42;;;2.10;99.90;;;;;;5014466;28;20077;-80
2021/01/17 10:34:32;;;;;;;75.88;34.00;;;2.10;99.90;;;;;;5013322;28;20065;-79
2021/01/17 10:37:01;;;;;;;79.50;36.38;;;2.00;99.90;;;;;;5013577;28;20085;-78
2021/01/17 10:39:28;;;;;;;84.00;40.72;;;2.00;99.90;;;;;;5020366;28;20057;-79
2021/01/17 10:42:04;;;;;;;90.00;42.28;;;1.90;99.90;;;;;;5030594;28;20060;-78
2021/01/17 10:44:36;;;;;;;91.18;42.38;;;1.80;99.90;;;;;;5029137;28;20070;-79
2021/01/17 10:47:10;;;;;;;82.55;36.67;;;1.80;99.90;;;;;;5018003;28;20073;-82
2021/01/17 10:49:39;;;;;;;80.47;35.47;;;1.80;99.90;;;;;;5009911;28;20070;-79
2021/01/17 10:52:21;;;;;;;79.80;34.38;;;1.90;99.90;;;;;;5007911;28;20078;-81
2021/01/17 10:54:49;;;;;;;74.25;33.78;;;2.00;99.90;;;;;;5006634;28;20064;-80
2021/01/17 10:57:19;;;;;;;79.60;35.45;;;2.00;99.90;;;;;;5005523;28;20050;-79
2021/01/17 10:59:46;;;;;;;77.43;34.28;;;2.10;99.90;;;;;;5003251;28;20058;-80
2021/01/17 11:02:25;;;;;;;74.20;33.58;;;2.10;99.90;;;;;;5003805;28;20084;-80
2021/01/17 11:04:52;;;;;;;68.70;33.55;;;2.20;99.90;;;;;;5004777;28;20307;-79
2021/01/17 11:07:25;;;;;;;75.28;34.65;;;2.10;99.90;;;;;;5003678;28;20077;-78
2021/01/17 11:09:51;;;;;;;;;;;2.10;99.90;;;;;;5003882;28;20105;-79
2021/01/17 11:12:33;;;;;;;73.88;33.83;;;2.00;99.90;;;;;;5003240;28;19948;-80
2021/01/17 11:15:08;;;;;;;78.60;35.55;;;1.90;99.90;;;;;;5001269;28;20133;-80
2021/01/17 11:17:36;;;;;;;87.07;36.53;;;1.90;99.90;;;;;;5000954;28;20109;-78
2021/01/17 11:20:04;;;;;;;88.93;41.42;;;1.90;99.90;;;;;;5000757;28;20076;-80
2021/01/17 11:22:32;;;;;;;96.40;42.60;;;2.00;99.90;;;;;;4998214;28;20504;-79
2021/01/17 11:24:59;;;;;;;89.88;40.03;;;2.00;99.90;;;;;;5004447;28;20077;-78
2021/01/17 11:27:36;;;;;;;85.05;39.45;;;1.90;99.90;;;;;;5006963;28;20077;-78
2021/01/17 11:30:05;;;;;;;80.53;36.33;;;2.00;99.90;;;;;;5023607;23;20046;-78
2021/01/17 11:32:34;;;;;;;76.18;36.05;;;2.00;99.90;;;;;;5030730;28;20115;-78
2021/01/17 11:35:02;;;;;;;75.97;36.30;;;2.20;99.90;;;;;;5036146;28;20116;-79
2021/01/17 11:37:33;;;;;;;79.28;37.33;;;2.30;99.90;;;;;;5032443;28;20132;-78
2021/01/17 11:40:05;;;;;;;82.13;36.42;;;2.20;99.90;;;;;;5029244;28;20045;-78
2021/01/17 11:42:32;;;;;;;93.28;39.65;;;2.30;99.90;;;;;;5030855;28;20096;-78
2021/01/17 11:45:13;;;;;;;90.68;39.35;;;2.30;99.90;;;;;;5018909;28;20081;-78
2021/01/17 11:47:41;;;;;;;84.35;36.60;;;2.20;99.90;;;;;;5020692;28;20472;-78
2021/01/17 11:50:16;;;;;;;94.70;39.15;;;2.20;99.90;;;;;;5024439;28;20128;-78
2021/01/17 11:52:43;;;;;;;79.55;35.75;;;2.20;99.90;;;;;;5032002;28;20085;-78
2021/01/17 11:55:11;;;;;;;82.05;36.88;;;2.20;99.90;;;;;;5036977;28;20053;-78
2021/01/17 11:57:37;;;;;;;80.25;36.33;;;2.40;99.90;;;;;;5037771;28;20466;-78
2021/01/17 12:00:06;;;;;;;72.45;33.58;;;2.50;99.90;;;;;;5038473;28;20045;-78
2021/01/17 12:02:40;;;;;;;77.28;35.58;;;2.60;99.90;;;;;;5038550;28;20045;-79
2021/01/17 12:05:08;;;;;;;78.00;35.80;;;2.70;99.90;;;;;;5039019;28;20053;-79
2021/01/17 12:07:35;;;;;;;79.47;36.13;;;2.80;99.90;;;;;;5039713;28;20088;-78
2021/01/17 12:10:06;;;;;;;76.78;36.67;;;2.80;99.90;;;;;;5040197;28;20057;-78
2021/01/17 12:12:36;;;;;;;79.82;35.90;;;2.80;99.90;;;;;;5037633;28;20080;-79
2021/01/17 12:15:04;;;;;;;84.65;36.30;;;2.80;99.90;;;;;;5037991;28;20132;-79
2021/01/17 12:17:31;;;;;;;89.38;37.20;;;2.80;99.90;;;;;;5039149;28;20069;-79
2021/01/17 12:19:57;;;;;;;81.32;36.35;;;2.90;99.90;;;;;;5039843;28;20156;-79
2021/01/17 12:22:24;;;;;;;81.95;35.33;;;2.90;99.90;;;;;;5041549;28;20050;-79
2021/01/17 12:24:51;;;;;;;85.05;36.90;;;2.90;99.90;;;;;;5037185;28;20080;-78
2021/01/17 12:27:17;;;;;;;73.22;32.88;;;3.00;99.90;;;;;;5008806;28;20073;-80
2021/01/17 12:29:44;;;;;;;89.88;37.78;;;2.90;99.90;;;;;;5005969;28;20050;-80
2021/01/17 12:32:10;;;;;;;94.70;38.75;;;2.80;99.90;;;;;;5004077;28;20043;-80
2021/01/17 12:34:37;;;;;;;81.93;37.90;;;2.70;99.90;;;;;;5002732;28;20082;-78
2021/01/17 12:37:04;;;;;;;96.38;40.58;;;2.70;99.90;;;;;;5010499;28;20109;-79
2021/01/17 12:39:30;;;;;;;85.78;38.67;;;2.60;99.90;;;;;;5009779;28;20054;-78
2021/01/17 12:41:58;;;;;;;87.32;37.80;;;2.70;99.90;;;;;;5006095;28;20125;-79
2021/01/17 12:44:34;;;;;;;90.13;39.60;;;2.70;99.90;;;;;;5014371;28;20085;-80
2021/01/17 12:47:04;;;;;;;89.07;40.63;;;2.60;99.90;;;;;;5006556;28;20050;-80
2021/01/17 12:49:31;;;;;;;85.63;37.95;;;2.60;99.90;;;;;;5011554;28;20097;-78
2021/01/17 12:51:57;;;;;;;83.03;36.58;;;2.60;99.90;;;;;;5007050;28;20048;-79